NZAA Airport Information

Runway Information
Runway 05R Length 11926 ft width 148 ft
Elevation 15 ft Threshold 1125 ft Heading 72
Runway 23L Length 11926 ft Width 148 ft
Elevation 23 ft Threshold ft Heading 252
Runway 05L Length 10197 ft width 148 ft
Elevation 15 ft Threshold 1148 ft Heading 71
Runway 23R Length 10197 ft Width 148 ft
Elevation 22 ft Threshold 1542 ft Heading 251
Airport Frequencies
Type APP Name APP Frequency 124.3 MHZ
Type ATIS Name ATIS Frequency 127.8 MHZ
Type CLD Name CLNC DEL Frequency 128.2 MHZ
Type GND Name GND Frequency 121.9 MHZ
Type TWR Name TWR Frequency 118.7 MHZ
Airport Navaids
Type VOR-DME Name Auckland Frequency 114800 KHZ
Type NDB Name Whitford Frequency 334 KHZ
Type NDB Name Westpoint Frequency 398 KHZ
Airport Weather Information & NOTAM
ADDS - METARS form results

(1455 UTC 14 August 2022)
Data provider http://aviationweather.gov/metar/data/
 
METAR text: NZAA 141430Z AUTO 05002KT 9999 OVC043/// 09/07 Q1028 NOSIG
Conditions at: NZAA (AUCKLAND INTL AR, NZ) observed 1430 UTC 14 August 2022
Temperature: 9.0°C (48°F)
Dewpoint: 7.0°C (45°F) [RH = 87%]
Pressure (altimeter): 30.35 inches Hg (1028.0 mb)
Winds: from the NE (50 degrees) at 2 MPH (2 knots; 1.0 m/s)
Visibility: 6 or more miles (10+ km)
Ceiling: 4300 feet AGL
Clouds: overcast cloud deck at 4300 feet AGL
Weather: no significant weather observed at this time

METAR text: NZAA 141400Z AUTO 06001KT 9999 OVC043/// 09/07 Q1028 NOSIG
Conditions at: NZAA (AUCKLAND INTL AR, NZ) observed 1400 UTC 14 August 2022
Temperature: 9.0°C (48°F)
Dewpoint: 7.0°C (45°F) [RH = 87%]
Pressure (altimeter): 30.35 inches Hg (1028.0 mb)
Winds: from the ENE (60 degrees) at 1 MPH (1 knots; 0.5 m/s)
Visibility: 6 or more miles (10+ km)
Ceiling: 4300 feet AGL
Clouds: overcast cloud deck at 4300 feet AGL
Weather: no significant weather observed at this time

Forecast for: NZAA (AUCKLAND INTL AR, NZ)
Text: TAF NZAA 141109Z 1412/1512 VRB02KT 9999 BKN040
Forecast period: 1200 to 2200 UTC 14 August 2022
Forecast type: FROM: standard forecast or significant change
Winds: variable direction winds at 2 MPH (2 knots; 1.0 m/s)
Visibility: 6 or more miles (10+ km)
Ceiling: 4000 feet AGL
Clouds: broken clouds at 4000 feet AGL
Weather: no significant weather forecast for this period
Text: BECMG 1422/1500 04012KT
Forecast period: 2200 UTC 14 August 2022 to 1200 UTC 15 August 2022
Forecast type: BECOMING: Conditions expected to become as follows by 0000 UTC 15 August 2022
Winds: from the NE (40 degrees) at 14 MPH (12 knots; 6.2 m/s)
Visibility: 6 or more miles (10+ km)
Ceiling: 4000 feet AGL
Clouds: broken clouds at 4000 feet AGL
Weather: no significant weather forecast for this period